Etusivu
METAR-TAF:

METAR-TAF

Lentoasemat :

El Oued, Algeria

Leveyspiiri: 33-30-47N, Pituuspiiri: 006-46-57E, korkeus merenpinnasta: 62 m

Tämänhetkinen sää

Tämä raportti tehtiin 18 minuuttia sitten, kello 21.00 UTC
Tuuli 3 kn etelästä
Lämpötila 11°C
Kosteus 62%
Ilmanpaine 1024 hPa
Näkyvyys: 8000 m

METAR: DAUO 242100Z 18003KT 8000 NSC 11/04 Q1024

Aika: 22:18 (21:18 UTC)

Sääennuste

Tämä raportti tehtiin 1 tunti ja 18 minuuttia sitten, kello 20.00 UTC
Ennuste voimassa 24. päivästä klo 21 UTC - 25. päivään klo 06 UTC
Tuuli 2 kn eri suunnista
Näkyvyys: 8000 m

TAF: DAUO 242000Z 2421/2506 VRB02KT 8000 NSC

Säähavainnot ja -ennusteet yli 4000 lentoasemalta (METAR- ja TAF-raportit).

Käytössä olevat sääasemat on merkitty karttaan keltaisilla ja punaisilla pisteillä.

Aseta hiiri pisteen päälle nähdäksesi sääaseman nimen.

Klikkaa sitten nähdäksesi säähavainnot ja -ennusteet.

Kartan vaihtaminen: klikkaa mustalla rastilla varustettuja vihreitä pisteitä, niin voit zoomata sisään; viivalla varustettua vihreää pistettä, niin voit zoomata ulos tai vihreitä nuolia, niin pääset viereisille kartoille.


METAR-TAF: